| time (UTC) | temp F | wind direction | speed knots | gust knots | rain 1hr in | rain 24hr in | rain mn in | humidity % | barometer mb |
| 20260509135134 | 76 | 210 | 0.9 | 1.7 | 0.00 | 0.00 | 0.00 | 82 | 1008.0 |
| 20260509134630 | 75 | 99 | 0.9 | 0.9 | 0.00 | 0.00 | 0.00 | 84 | 1007.9 |
| 20260509134128 | 74 | 1 | 1.7 | 1.7 | 0.00 | 0.00 | 0.00 | 84 | 1007.9 |
| 20260509133625 | 74 | 345 | 2.6 | 2.6 | 0.00 | 0.00 | 0.00 | 85 | 1007.8 |
| 20260509133122 | 73 | 242 | 1.7 | 1.7 | 0.00 | 0.00 | 0.00 | 87 | 1007.9 |
| 20260509132621 | 73 | 255 | 0.9 | 1.7 | 0.00 | 0.00 | 0.00 | 88 | 1007.8 |
| 20260509132119 | 72 | 310 | 1.7 | 4.3 | 0.00 | 0.00 | 0.00 | 89 | 1007.8 |
| 20260509131614 | 72 | 265 | 2.6 | 7.0 | 0.00 | 0.00 | 0.00 | 89 | 1007.5 |
| 20260509131112 | 71 | 251 | 0.9 | 0.9 | 0.00 | 0.00 | 0.00 | 90 | 1007.9 |
| 20260509130607 | 71 | 240 | 0.0 | 0.0 | 0.00 | 0.00 | 0.00 | 91 | 1007.7 |
| 20260509130104 | 70 | 17 | 1.7 | 1.7 | 0.00 | 0.00 | 0.00 | 92 | 1007.5 |
| 20260509125600 | 70 | 259 | 0.9 | 0.9 | 0.00 | 0.00 | 0.00 | 92 | 1007.4 |
| 20260509125057 | 70 | 229 | 0.9 | 0.9 | 0.00 | 0.00 | 0.00 | 93 | 1007.9 |
| 20260509124554 | 70 | 190 | 1.7 | 1.7 | 0.00 | 0.00 | 0.00 | 93 | 1007.7 |
| 20260509124051 | 69 | 307 | 0.0 | 0.0 | 0.00 | 0.00 | 0.00 | 94 | 1007.5 |
| 20260509123549 | 69 | 222 | 0.9 | 1.7 | 0.00 | 0.00 | 0.00 | 94 | 1007.7 |
| 20260509123045 | 69 | 309 | 0.0 | 0.9 | 0.00 | 0.00 | 0.00 | 94 | 1007.5 |
| 20260509122541 | 69 | 240 | 2.6 | 2.6 | 0.00 | 0.00 | 0.00 | 95 | 1007.7 |
| 20260509122039 | 69 | 29 | 0.9 | 0.9 | 0.00 | 0.00 | 0.00 | 95 | 1007.8 |
| 20260509121535 | 68 | 271 | 1.7 | 2.6 | 0.00 | 0.00 | 0.00 | 95 | 1007.5 |
| 20260509121033 | 68 | 270 | 1.7 | 2.6 | 0.00 | 0.00 | 0.00 | 96 | 1007.4 |
| 20260509120531 | 68 | 239 | 0.9 | 0.9 | 0.00 | 0.00 | 0.00 | 96 | 1007.5 |
| 20260509120029 | 68 | 238 | 0.0 | 0.9 | 0.00 | 0.00 | 0.00 | 96 | 1007.8 |
| 20260509115525 | 68 | 228 | 0.0 | 0.0 | 0.00 | 0.00 | 0.00 | 95 | 1007.5 |
| 20260509115023 | 68 | 251 | 1.7 | 2.6 | 0.00 | 0.00 | 0.00 | 95 | 1007.5 |
| 20260509114521 | 68 | 240 | 0.0 | 0.9 | 0.00 | 0.00 | 0.00 | 95 | 1007.3 |
| 20260509114020 | 68 | 266 | 3.5 | 5.2 | 0.00 | 0.00 | 0.00 | 95 | 1007.2 |
| 20260509113518 | 68 | 284 | 2.6 | 4.3 | 0.00 | 0.00 | 0.00 | 95 | 1007.1 |
| 20260509113015 | 68 | 258 | 0.0 | 0.0 | 0.00 | 0.00 | 0.00 | 95 | 1007.1 |
| 20260509112511 | 68 | 232 | 0.9 | 0.9 | 0.00 | 0.00 | 0.00 | 95 | 1006.8 |
| 20260509112008 | 68 | 351 | 1.7 | 1.7 | 0.00 | 0.00 | 0.00 | 95 | 1006.8 |
| 20260509111506 | 68 | 270 | 0.0 | 0.9 | 0.00 | 0.00 | 0.00 | 95 | 1006.5 |
| 20260509111003 | 68 | 225 | 1.7 | 1.7 | 0.00 | 0.00 | 0.00 | 95 | 1006.3 |
| 20260509110459 | 68 | 225 | 1.7 | 2.6 | 0.00 | 0.00 | 0.00 | 95 | 1006.4 |
| 20260509105956 | 68 | 206 | 0.0 | 0.0 | 0.00 | 0.00 | 0.00 | 95 | 1006.3 |
| 20260509105455 | 68 | 238 | 0.0 | 0.0 | 0.00 | 0.00 | 0.00 | 95 | 1006.0 |
| 20260509104952 | 68 | 245 | 0.0 | 0.0 | 0.00 | 0.00 | 0.00 | 95 | 1006.0 |
| 20260509104449 | 68 | 248 | 0.0 | 0.0 | 0.00 | 0.00 | 0.00 | 95 | 1005.9 |
| 20260509103946 | 68 | 232 | 0.0 | 0.0 | 0.00 | 0.00 | 0.00 | 95 | 1005.7 |
| 20260509103443 | 68 | 230 | 0.0 | 0.0 | 0.00 | 0.00 | 0.00 | 95 | 1005.7 |
| 20260509102941 | 68 | 228 | 0.0 | 0.0 | 0.00 | 0.00 | 0.00 | 95 | 1005.8 |
| 20260509102438 | 68 | 233 | 0.0 | 0.0 | 0.00 | 0.00 | 0.00 | 94 | 1005.6 |
| 20260509101934 | 69 | 235 | 0.0 | 0.0 | 0.00 | 0.00 | 0.00 | 94 | 1005.5 |
| 20260509101431 | 69 | 234 | 0.0 | 0.0 | 0.00 | 0.00 | 0.00 | 94 | 1005.6 |
| 20260509100928 | 69 | 234 | 0.0 | 0.0 | 0.00 | 0.00 | 0.00 | 93 | 1005.9 |
| 20260509100425 | 69 | 237 | 0.0 | 0.0 | 0.00 | 0.00 | 0.00 | 93 | 1005.7 |
| 20260509095922 | 69 | 243 | 0.0 | 0.0 | 0.00 | 0.00 | 0.00 | 93 | 1005.8 |
| 20260509095419 | 70 | 231 | 0.0 | 0.0 | 0.00 | 0.00 | 0.00 | 92 | 1005.6 |
| 20260509094916 | 70 | 217 | 0.0 | 0.0 | 0.00 | 0.00 | 0.00 | 92 | 1005.5 |
| 20260509094413 | 70 | 200 | 0.0 | 0.0 | 0.00 | 0.00 | 0.00 | 92 | 1005.6 |
| 20260509093911 | 70 | 14 | 0.9 | 0.9 | 0.00 | 0.00 | 0.00 | 92 | 1005.4 |
| 20260509093408 | 70 | 234 | 0.0 | 0.0 | 0.00 | 0.00 | 0.00 | 92 | 1005.4 |
| 20260509092906 | 70 | 233 | 0.0 | 0.9 | 0.00 | 0.00 | 0.00 | 92 | 1005.4 |
| 20260509092403 | 71 | 271 | 0.0 | 0.0 | 0.00 | 0.00 | 0.00 | 92 | 1005.2 |
| 20260509091902 | 71 | 229 | 0.0 | 0.0 | 0.00 | 0.00 | 0.00 | 92 | 1005.0 |
| 20260509091358 | 71 | 225 | 0.0 | 0.0 | 0.00 | 0.00 | 0.00 | 91 | 1005.0 |
| 20260509090855 | 71 | 210 | 0.0 | 0.0 | 0.00 | 0.00 | 0.00 | 91 | 1005.4 |
| 20260509090352 | 71 | 220 | 0.0 | 0.0 | 0.00 | 0.00 | 0.00 | 91 | 1005.4 |
| 20260509085850 | 71 | 238 | 0.9 | 0.9 | 0.00 | 0.00 | 0.00 | 91 | 1005.5 |
| 20260509085347 | 71 | 282 | 1.7 | 1.7 | 0.00 | 0.00 | 0.00 | 91 | 1005.6 |
| 20260509084843 | 71 | 208 | 0.9 | 1.7 | 0.00 | 0.00 | 0.00 | 91 | 1004.6 |
| 20260509084340 | 71 | 243 | 0.0 | 0.9 | 0.00 | 0.00 | 0.00 | 91 | 1004.0 |
| 20260509083838 | 71 | 215 | 0.9 | 0.9 | 0.00 | 0.00 | 0.00 | 91 | 1003.6 |
| 20260509083335 | 71 | 310 | 0.9 | 0.9 | 0.00 | 0.00 | 0.00 | 91 | 1003.4 |
| 20260509082831 | 71 | 242 | 0.0 | 0.9 | 0.00 | 0.00 | 0.00 | 91 | 1003.3 |
| 20260509082328 | 71 | 236 | 1.7 | 2.6 | 0.00 | 0.00 | 0.00 | 91 | 1003.6 |
| 20260509081826 | 71 | 308 | 1.7 | 1.7 | 0.00 | 0.00 | 0.00 | 91 | 1003.8 |
| 20260509081322 | 71 | 216 | 1.7 | 1.7 | 0.00 | 0.00 | 0.00 | 91 | 1004.1 |
| 20260509080820 | 71 | 245 | 2.6 | 4.3 | 0.00 | 0.00 | 0.00 | 91 | 1004.2 |
| 20260509080318 | 71 | 233 | 1.7 | 2.6 | 0.00 | 0.00 | 0.00 | 91 | 1004.5 |
| 20260509075816 | 71 | 212 | 2.6 | 4.3 | 0.00 | 0.00 | 0.00 | 91 | 1004.9 |
| 20260509075313 | 71 | 211 | 1.7 | 2.6 | 0.00 | 0.00 | 0.00 | 91 | 1005.2 |
| 20260509074810 | 71 | 195 | 2.6 | 2.6 | 0.00 | 0.00 | 0.00 | 91 | 1005.6 |
| 20260509074308 | 71 | 216 | 0.9 | 1.7 | 0.00 | 0.00 | 0.00 | 91 | 1005.9 |
| 20260509073804 | 71 | 214 | 0.0 | 0.9 | 0.00 | 0.00 | 0.00 | 91 | 1006.4 |
| 20260509073300 | 71 | 7 | 0.0 | 0.9 | 0.00 | 0.00 | 0.00 | 91 | 1006.1 |
| 20260509072757 | 70 | 244 | 1.7 | 1.7 | 0.00 | 0.00 | 0.00 | 92 | 1006.2 |
| 20260509072253 | 70 | 271 | 1.7 | 5.2 | 0.00 | 0.00 | 0.00 | 92 | 1006.5 |
| 20260509071750 | 70 | 239 | 0.0 | 0.9 | 0.00 | 0.00 | 0.00 | 91 | 1006.7 |
| 20260509071247 | 70 | 208 | 0.9 | 0.9 | 0.00 | 0.00 | 0.00 | 91 | 1007.0 |
| 20260509070744 | 70 | 186 | 1.7 | 2.6 | 0.00 | 0.00 | 0.00 | 92 | 1007.0 |
| 20260509070241 | 70 | 221 | 2.6 | 2.6 | 0.00 | 0.00 | 0.00 | 92 | 1006.9 |
| 20260509065737 | 70 | 206 | 0.9 | 0.9 | 0.00 | 0.00 | 0.00 | 92 | 1007.2 |
| 20260509065234 | 70 | 222 | 0.9 | 0.9 | 0.00 | 0.00 | 0.00 | 92 | 1007.3 |
| 20260509064730 | 70 | 226 | 1.7 | 1.7 | 0.00 | 0.00 | 0.00 | 92 | 1007.4 |
| 20260509064228 | 70 | 212 | 0.0 | 0.0 | 0.00 | 0.00 | 0.00 | 92 | 1008.0 |
| 20260509063725 | 70 | 224 | 2.6 | 2.6 | 0.00 | 0.00 | 0.00 | 92 | 1007.9 |
| 20260509063221 | 70 | 260 | 0.9 | 0.9 | 0.00 | 0.00 | 0.00 | 91 | 1007.8 |
| 20260509062718 | 70 | 221 | 0.0 | 0.0 | 0.00 | 0.00 | 0.00 | 91 | 1007.5 |
| 20260509062215 | 70 | 249 | 0.9 | 1.7 | 0.00 | 0.00 | 0.00 | 91 | 1007.7 |
| 20260509061712 | 70 | 236 | 0.0 | 0.0 | 0.00 | 0.00 | 0.00 | 90 | 1007.5 |
| 20260509061210 | 70 | 256 | 0.0 | 0.9 | 0.00 | 0.00 | 0.00 | 90 | 1007.7 |
| 20260509060707 | 70 | 223 | 0.9 | 1.7 | 0.00 | 0.00 | 0.00 | 90 | 1007.3 |
| 20260509060203 | 70 | 208 | 1.7 | 1.7 | 0.00 | 0.00 | 0.00 | 90 | 1007.3 |
| 20260509055659 | 70 | 228 | 0.0 | 0.9 | 0.00 | 0.00 | 0.00 | 90 | 1007.8 |
| 20260509055155 | 70 | 232 | 0.0 | 0.9 | 0.00 | 0.00 | 0.00 | 89 | 1007.3 |
| 20260509054652 | 70 | 231 | 0.0 | 0.0 | 0.00 | 0.00 | 0.00 | 89 | 1007.5 |
| 20260509054149 | 70 | 232 | 0.0 | 0.0 | 0.00 | 0.00 | 0.00 | 89 | 1007.4 |
| 20260509053648 | 71 | 228 | 0.0 | 0.0 | 0.00 | 0.00 | 0.00 | 89 | 1008.1 |
| 20260509053144 | 71 | 230 | 0.0 | 0.0 | 0.00 | 0.00 | 0.00 | 88 | 1008.1 |
| 20260509052642 | 71 | 247 | 0.0 | 0.0 | 0.00 | 0.00 | 0.00 | 88 | 1008.4 |
| 20260509052139 | 71 | 227 | 0.0 | 0.0 | 0.00 | 0.00 | 0.00 | 87 | 1008.5 |
| 20260509051637 | 72 | 241 | 0.0 | 0.0 | 0.00 | 0.00 | 0.00 | 87 | 1008.5 |
| 20260509051134 | 72 | 258 | 0.9 | 0.9 | 0.00 | 0.00 | 0.00 | 87 | 1008.6 |
| 20260509050631 | 72 | 234 | 0.0 | 0.0 | 0.00 | 0.00 | 0.00 | 87 | 1008.7 |
| 20260509050127 | 71 | 225 | 0.0 | 0.9 | 0.00 | 0.00 | 0.00 | 87 | 1008.9 |
| 20260509045625 | 71 | 245 | 0.0 | 0.9 | 0.00 | 0.55 | 0.55 | 87 | 1008.5 |
| 20260509045122 | 71 | 256 | 0.0 | 0.9 | 0.00 | 0.55 | 0.55 | 87 | 1007.9 |
| 20260509044619 | 71 | 246 | 0.0 | 0.0 | 0.00 | 0.55 | 0.55 | 87 | 1007.3 |
| 20260509044116 | 71 | 231 | 0.0 | 0.0 | 0.00 | 0.55 | 0.55 | 87 | 1007.3 |
| 20260509043613 | 71 | 237 | 0.0 | 0.9 | 0.00 | 0.55 | 0.55 | 87 | 1007.3 |
| 20260509043108 | 71 | 215 | 0.0 | 0.0 | 0.00 | 0.55 | 0.55 | 86 | 1007.3 |
| 20260509042605 | 72 | 213 | 0.0 | 0.0 | 0.00 | 0.55 | 0.55 | 86 | 1007.7 |
| 20260509042101 | 72 | 209 | 0.0 | 0.0 | 0.00 | 0.55 | 0.55 | 85 | 1007.4 |
| 20260509041558 | 72 | 191 | 0.0 | 0.0 | 0.00 | 0.55 | 0.55 | 85 | 1007.4 |
| 20260509041055 | 72 | 238 | 0.9 | 0.9 | 0.00 | 0.55 | 0.55 | 85 | 1007.0 |
| 20260509040554 | 72 | 216 | 0.9 | 0.9 | 0.00 | 0.55 | 0.55 | 85 | 1007.0 |
| 20260509040050 | 72 | 235 | 0.0 | 0.9 | 0.00 | 0.55 | 0.55 | 85 | 1007.0 |
| 20260509035547 | 72 | 193 | 0.0 | 0.9 | 0.00 | 0.55 | 0.55 | 85 | 1006.8 |
| 20260509035044 | 72 | 228 | 0.9 | 0.9 | 0.00 | 0.55 | 0.55 | 84 | 1006.8 |
| 20260509034542 | 72 | 234 | 0.0 | 0.9 | 0.00 | 0.55 | 0.55 | 84 | 1006.5 |
| 20260509034039 | 73 | 233 | 0.0 | 0.9 | 0.00 | 0.55 | 0.55 | 84 | 1006.8 |
| 20260509033536 | 73 | 203 | 0.0 | 0.0 | 0.00 | 0.55 | 0.55 | 84 | 1007.2 |
| 20260509033032 | 73 | 192 | 0.0 | 0.0 | 0.00 | 0.55 | 0.55 | 84 | 1007.7 |
| 20260509032530 | 73 | 157 | 0.0 | 0.9 | 0.00 | 0.55 | 0.55 | 83 | 1007.9 |
| 20260509032027 | 73 | 165 | 0.0 | 0.0 | 0.00 | 0.55 | 0.55 | 83 | 1007.8 |
| 20260509031524 | 73 | 63 | 0.9 | 1.7 | 0.00 | 0.55 | 0.55 | 83 | 1007.8 |
| 20260509031021 | 73 | 63 | 0.9 | 0.9 | 0.00 | 0.55 | 0.55 | 83 | 1007.7 |
| 20260509030520 | 73 | 90 | 0.0 | 0.9 | 0.00 | 0.55 | 0.55 | 83 | 1007.5 |
| 20260509030016 | 73 | 168 | 0.0 | 0.9 | 0.00 | 0.55 | 0.55 | 83 | 1007.3 |
| 20260509025512 | 73 | 150 | 2.6 | 4.3 | 0.00 | 0.55 | 0.55 | 82 | 1006.8 |
| 20260509025008 | 73 | 206 | 0.0 | 0.0 | 0.00 | 0.55 | 0.55 | 83 | 1006.8 |
| 20260509024503 | 73 | 213 | 0.0 | 0.0 | 0.00 | 0.55 | 0.55 | 83 | 1006.5 |
| 20260509024000 | 73 | 250 | 0.0 | 0.9 | 0.00 | 0.55 | 0.55 | 83 | 1006.2 |
| 20260509023457 | 73 | 170 | 0.9 | 0.9 | 0.00 | 0.55 | 0.55 | 83 | 1006.4 |
| 20260509022949 | 73 | 186 | 0.9 | 0.9 | 0.00 | 0.55 | 0.55 | 83 | 1006.3 |
| 20260509022446 | 73 | 224 | 1.7 | 2.6 | 0.00 | 0.55 | 0.55 | 83 | 1006.0 |
| 20260509021943 | 73 | 241 | 0.0 | 0.0 | 0.00 | 0.55 | 0.55 | 83 | 1005.7 |
| 20260509021440 | 73 | 202 | 0.9 | 1.7 | 0.00 | 0.55 | 0.55 | 83 | 1005.4 |
| 20260509020938 | 73 | 298 | 0.9 | 2.6 | 0.00 | 0.55 | 0.55 | 82 | 1005.4 |
| 20260509020436 | 73 | 269 | 0.9 | 1.7 | 0.00 | 0.55 | 0.55 | 83 | 1005.5 |
| 20260509015932 | 73 | 280 | 0.9 | 0.9 | 0.00 | 0.55 | 0.55 | 83 | 1005.5 |
| 20260509015431 | 73 | 248 | 1.7 | 1.7 | 0.00 | 0.55 | 0.55 | 82 | 1005.5 |
| 20260509014927 | 73 | 200 | 0.0 | 0.0 | 0.00 | 0.55 | 0.55 | 82 | 1005.6 |
| 20260509014424 | 73 | 206 | 0.9 | 1.7 | 0.00 | 0.55 | 0.55 | 82 | 1005.5 |
| 20260509013920 | 73 | 237 | 0.0 | 0.9 | 0.00 | 0.55 | 0.55 | 82 | 1005.5 |
| 20260509013417 | 73 | 146 | 1.7 | 1.7 | 0.00 | 0.55 | 0.55 | 81 | 1005.7 |
| 20260509012913 | 73 | 246 | 0.0 | 0.9 | 0.00 | 0.55 | 0.55 | 81 | 1005.9 |
| 20260509012410 | 73 | 243 | 0.0 | 0.9 | 0.00 | 0.55 | 0.55 | 81 | 1005.9 |
| 20260509011907 | 73 | 218 | 0.9 | 0.9 | 0.00 | 0.55 | 0.55 | 81 | 1006.0 |
| 20260509011404 | 74 | 197 | 0.9 | 0.9 | 0.00 | 0.55 | 0.55 | 81 | 1005.7 |
| 20260509010903 | 74 | 239 | 0.0 | 0.0 | 0.00 | 0.55 | 0.55 | 81 | 1005.7 |
| 20260509010400 | 73 | 240 | 0.0 | 0.0 | 0.00 | 0.55 | 0.55 | 81 | 1005.9 |
| 20260509005856 | 74 | 195 | 0.9 | 0.9 | 0.00 | 0.55 | 0.55 | 81 | 1005.7 |
| 20260509005354 | 74 | 226 | 0.0 | 0.0 | 0.00 | 0.55 | 0.55 | 81 | 1005.7 |
| 20260509004849 | 74 | 254 | 0.9 | 0.9 | 0.00 | 0.55 | 0.55 | 80 | 1005.6 |
| 20260509004346 | 74 | 252 | 0.9 | 0.9 | 0.00 | 0.55 | 0.55 | 80 | 1005.5 |
| 20260509003843 | 74 | 210 | 0.9 | 1.7 | 0.00 | 0.55 | 0.55 | 79 | 1005.4 |
| 20260509003341 | 74 | 265 | 1.7 | 1.7 | 0.00 | 0.55 | 0.55 | 79 | 1005.2 |
| 20260509002838 | 75 | 195 | 0.0 | 0.9 | 0.00 | 0.55 | 0.55 | 78 | 1005.4 |
| 20260509002336 | 75 | 241 | 1.7 | 1.7 | 0.00 | 0.55 | 0.55 | 78 | 1005.3 |
| 20260509001833 | 75 | 216 | 2.6 | 5.2 | 0.00 | 0.55 | 0.55 | 78 | 1005.3 |
| 20260509001329 | 75 | 259 | 0.0 | 0.9 | 0.00 | 0.55 | 0.55 | 78 | 1005.3 |
| 20260509000826 | 75 | 246 | 0.9 | 1.7 | 0.00 | 0.55 | 0.55 | 77 | 1005.2 |
| 20260509000325 | 75 | 239 | 0.9 | 1.7 | 0.00 | 0.55 | 0.55 | 76 | 1005.2 |
| 20260508235820 | 76 | 233 | 2.6 | 4.3 | 0.00 | 0.55 | 0.55 | 75 | 1005.2 |
| 20260508235317 | 77 | 243 | 2.6 | 4.3 | 0.00 | 0.55 | 0.55 | 74 | 1005.1 |
| 20260508234814 | 76 | 288 | 0.9 | 1.7 | 0.00 | 0.55 | 0.55 | 75 | 1005.5 |
| 20260508234310 | 76 | 346 | 0.9 | 0.9 | 0.00 | 0.55 | 0.55 | 74 | 1005.5 |
| 20260508233809 | 76 | 205 | 0.0 | 0.0 | 0.00 | 0.55 | 0.55 | 75 | 1005.8 |
| 20260508233308 | 76 | 297 | 0.0 | 0.9 | 0.00 | 0.55 | 0.55 | 74 | 1005.5 |
| 20260508232805 | 77 | 244 | 0.9 | 0.9 | 0.00 | 0.55 | 0.55 | 73 | 1005.5 |
| 20260508232301 | 77 | 256 | 0.9 | 0.9 | 0.00 | 0.55 | 0.55 | 72 | 1005.5 |
| 20260508231800 | 77 | 232 | 0.9 | 0.9 | 0.00 | 0.55 | 0.55 | 72 | 1005.7 |
| 20260508231255 | 77 | 183 | 0.9 | 0.9 | 0.00 | 0.55 | 0.55 | 71 | 1005.6 |
| 20260508230752 | 78 | 284 | 0.0 | 0.9 | 0.00 | 0.55 | 0.55 | 71 | 1005.8 |
| 20260508230248 | 78 | 94 | 0.9 | 1.7 | 0.00 | 0.55 | 0.55 | 70 | 1005.7 |
| 20260508225746 | 78 | 233 | 0.0 | 0.9 | 0.00 | 0.55 | 0.55 | 71 | 1005.8 |
| 20260508225242 | 79 | 249 | 0.0 | 0.9 | 0.00 | 0.55 | 0.55 | 69 | 1005.8 |
| 20260508224740 | 78 | 241 | 0.0 | 0.9 | 0.00 | 0.55 | 0.55 | 68 | 1005.8 |
| 20260508224238 | 79 | 32 | 0.9 | 1.7 | 0.00 | 0.55 | 0.55 | 68 | 1005.6 |
| 20260508223736 | 79 | 217 | 1.7 | 1.7 | 0.00 | 0.55 | 0.55 | 69 | 1005.7 |
| 20260508223232 | 80 | 227 | 1.7 | 1.7 | 0.00 | 0.55 | 0.55 | 67 | 1005.6 |
| 20260508222730 | 80 | 238 | 0.9 | 1.7 | 0.00 | 0.55 | 0.55 | 67 | 1005.8 |
| 20260508222227 | 80 | 219 | 0.9 | 2.6 | 0.00 | 0.55 | 0.55 | 67 | 1006.0 |
| 20260508221723 | 79 | 192 | 0.9 | 1.7 | 0.00 | 0.55 | 0.55 | 68 | 1005.8 |
| 20260508221220 | 78 | 223 | 0.9 | 1.7 | 0.00 | 0.55 | 0.55 | 69 | 1005.7 |
| 20260508220716 | 78 | 212 | 1.7 | 1.7 | 0.00 | 0.55 | 0.55 | 68 | 1006.1 |
| 20260508220213 | 78 | 234 | 2.6 | 2.6 | 0.00 | 0.55 | 0.55 | 68 | 1006.0 |
| 20260508215709 | 78 | 4 | 1.7 | 1.7 | 0.00 | 0.55 | 0.55 | 68 | 1005.8 |
| 20260508215205 | 78 | 270 | 0.9 | 1.7 | 0.00 | 0.55 | 0.55 | 68 | 1005.8 |
| 20260508214703 | 79 | 169 | 0.9 | 1.7 | 0.00 | 0.55 | 0.55 | 68 | 1005.8 |
| 20260508214200 | 79 | 356 | 0.9 | 1.7 | 0.00 | 0.55 | 0.55 | 67 | 1005.8 |
| 20260508213656 | 78 | 216 | 0.9 | 1.7 | 0.00 | 0.55 | 0.55 | 68 | 1005.7 |
| 20260508213153 | 79 | 221 | 0.9 | 0.9 | 0.00 | 0.55 | 0.55 | 68 | 1005.9 |
| 20260508212649 | 78 | 327 | 1.7 | 2.6 | 0.00 | 0.55 | 0.55 | 68 | 1005.8 |
| 20260508212146 | 79 | 293 | 1.7 | 2.6 | 0.00 | 0.55 | 0.55 | 68 | 1006.1 |
| 20260508211641 | 79 | 262 | 0.9 | 1.7 | 0.00 | 0.55 | 0.55 | 68 | 1006.0 |
| 20260508211138 | 79 | 358 | 1.7 | 1.7 | 0.00 | 0.55 | 0.55 | 67 | 1006.2 |
| 20260508210634 | 78 | 193 | 0.9 | 1.7 | 0.00 | 0.55 | 0.55 | 67 | 1005.9 |
| 20260508210132 | 78 | 194 | 1.7 | 2.6 | 0.00 | 0.55 | 0.55 | 67 | 1006.1 |
| 20260508205629 | 78 | 152 | 3.5 | 4.3 | 0.00 | 0.55 | 0.55 | 68 | 1006.1 |
| 20260508205125 | 77 | 209 | 0.0 | 0.9 | 0.00 | 0.55 | 0.55 | 70 | 1006.3 |
| 20260508204621 | 77 | 210 | 2.6 | 2.6 | 0.00 | 0.55 | 0.55 | 68 | 1006.4 |
| 20260508204118 | 78 | 35 | 0.9 | 1.7 | 0.00 | 0.55 | 0.55 | 68 | 1006.6 |
| 20260508203614 | 77 | 307 | 1.7 | 2.6 | 0.00 | 0.55 | 0.55 | 69 | 1006.8 |
| 20260508203110 | 74 | 169 | 1.7 | 2.6 | 0.00 | 0.55 | 0.55 | 71 | 1007.5 |
| 20260508202606 | 74 | 189 | 0.9 | 1.7 | 0.00 | 0.55 | 0.55 | 72 | 1007.9 |
| 20260508202104 | 75 | 230 | 1.7 | 1.7 | 0.00 | 0.55 | 0.55 | 71 | 1008.0 |
| 20260508201600 | 75 | 227 | 0.0 | 0.9 | 0.00 | 0.55 | 0.55 | 71 | 1007.9 |
| 20260508201057 | 75 | 238 | 0.9 | 1.7 | 0.00 | 0.55 | 0.55 | 71 | 1008.1 |
| 20260508200554 | 76 | 269 | 0.9 | 0.9 | 0.00 | 0.55 | 0.55 | 71 | 1007.9 |
| 20260508200049 | 76 | 213 | 0.9 | 1.7 | 0.00 | 0.55 | 0.55 | 71 | 1007.8 |
| 20260508195547 | 77 | 214 | 1.7 | 1.7 | 0.00 | 0.55 | 0.55 | 70 | 1008.1 |
| 20260508195043 | 77 | 238 | 0.9 | 0.9 | 0.00 | 0.55 | 0.55 | 71 | 1007.7 |
| 20260508194540 | 77 | 187 | 0.0 | 0.9 | 0.00 | 0.55 | 0.55 | 71 | 1008.0 |
| 20260508194037 | 77 | 192 | 0.9 | 0.9 | 0.00 | 0.55 | 0.55 | 71 | 1008.1 |
| 20260508193533 | 76 | 238 | 0.9 | 0.9 | 0.00 | 0.55 | 0.55 | 71 | 1008.1 |
| 20260508193030 | 76 | 358 | 1.7 | 2.6 | 0.00 | 0.55 | 0.55 | 71 | 1007.9 |
| 20260508192527 | 76 | 239 | 0.9 | 0.9 | 0.00 | 0.55 | 0.55 | 71 | 1008.3 |
| 20260508192025 | 77 | 228 | 0.0 | 0.0 | 0.00 | 0.55 | 0.55 | 70 | 1007.9 |
| 20260508191521 | 77 | 198 | 3.5 | 4.3 | 0.00 | 0.55 | 0.55 | 70 | 1008.1 |
| 20260508191018 | 76 | 237 | 2.6 | 5.2 | 0.00 | 0.55 | 0.55 | 70 | 1008.2 |
| 20260508190515 | 77 | 207 | 0.9 | 1.7 | 0.00 | 0.55 | 0.55 | 69 | 1008.0 |
| 20260508190011 | 77 | 225 | 0.9 | 1.7 | 0.00 | 0.55 | 0.55 | 69 | 1008.1 |
| 20260508185509 | 78 | 220 | 2.6 | 4.3 | 0.00 | 0.55 | 0.55 | 69 | 1008.3 |
| 20260508185007 | 78 | 234 | 0.9 | 1.7 | 0.00 | 0.55 | 0.55 | 67 | 1008.3 |
| 20260508184504 | 79 | 226 | 0.9 | 0.9 | 0.00 | 0.55 | 0.55 | 67 | 1008.3 |
| 20260508184000 | 79 | 133 | 0.9 | 0.9 | 0.00 | 0.55 | 0.55 | 66 | 1008.2 |
| 20260508183456 | 79 | 219 | 1.7 | 1.7 | 0.00 | 0.55 | 0.55 | 65 | 1008.5 |
| 20260508182951 | 80 | 134 | 1.7 | 2.6 | 0.00 | 0.55 | 0.55 | 64 | 1008.4 |
| 20260508182449 | 80 | 39 | 0.9 | 1.7 | 0.00 | 0.55 | 0.55 | 66 | 1008.2 |
| 20260508181944 | 79 | 204 | 0.9 | 1.7 | 0.00 | 0.55 | 0.55 | 67 | 1008.5 |
| 20260508181441 | 79 | 223 | 0.0 | 0.9 | 0.00 | 0.55 | 0.55 | 66 | 1008.7 |
| 20260508180938 | 78 | 227 | 0.0 | 0.9 | 0.00 | 0.55 | 0.55 | 68 | 1008.8 |
| 20260508180435 | 78 | 234 | 1.7 | 1.7 | 0.00 | 0.55 | 0.55 | 67 | 1009.1 |
| 20260508175931 | 78 | 208 | 2.6 | 2.6 | 0.00 | 0.55 | 0.55 | 67 | 1009.2 |
| 20260508175428 | 77 | 103 | 2.6 | 4.3 | 0.00 | 0.55 | 0.55 | 67 | 1009.2 |
| 20260508174926 | 77 | 183 | 0.9 | 0.9 | 0.00 | 0.55 | 0.55 | 68 | 1009.3 |
| 20260508174423 | 77 | 142 | 0.9 | 0.9 | 0.00 | 0.55 | 0.55 | 67 | 1009.2 |
| 20260508173919 | 78 | 122 | 2.6 | 4.3 | 0.00 | 0.55 | 0.55 | 65 | 1009.4 |
| 20260508173417 | 77 | 324 | 1.7 | 1.7 | 0.00 | 0.55 | 0.55 | 67 | 1009.4 |
| 20260508172912 | 77 | 202 | 0.0 | 0.9 | 0.00 | 0.55 | 0.55 | 68 | 1009.6 |
| 20260508172410 | 76 | 354 | 0.9 | 1.7 | 0.00 | 0.55 | 0.55 | 68 | 1009.6 |
| 20260508171906 | 75 | 167 | 1.7 | 1.7 | 0.00 | 0.55 | 0.55 | 67 | 1009.4 |
| 20260508171403 | 75 | 251 | 0.0 | 0.9 | 0.00 | 0.55 | 0.55 | 68 | 1009.4 |
| 20260508170859 | 75 | 135 | 2.6 | 4.3 | 0.00 | 0.55 | 0.55 | 67 | 1009.4 |
| 20260508170357 | 75 | 146 | 0.9 | 2.6 | 0.00 | 0.55 | 0.55 | 67 | 1009.9 |
| 20260508165853 | 75 | 216 | 0.9 | 1.7 | 0.00 | 0.55 | 0.55 | 68 | 1010.2 |
| 20260508165351 | 74 | 244 | 0.9 | 0.9 | 0.00 | 0.55 | 0.55 | 69 | 1010.3 |
| 20260508164847 | 73 | 209 | 0.9 | 0.9 | 0.00 | 0.55 | 0.55 | 71 | 1010.1 |
| 20260508164344 | 73 | 24 | 0.9 | 0.9 | 0.00 | 0.55 | 0.55 | 70 | 1010.4 |
| 20260508163841 | 72 | 185 | 0.0 | 0.9 | 0.00 | 0.55 | 0.55 | 70 | 1010.5 |
| 20260508163339 | 73 | 192 | 0.9 | 1.7 | 0.00 | 0.55 | 0.55 | 71 | 1010.6 |
| 20260508162834 | 73 | 233 | 2.6 | 2.6 | 0.00 | 0.55 | 0.55 | 68 | 1010.8 |
| 20260508162332 | 73 | 28 | 0.9 | 0.9 | 0.00 | 0.55 | 0.55 | 71 | 1010.9 |
| 20260508161829 | 73 | 125 | 0.9 | 1.7 | 0.00 | 0.55 | 0.55 | 69 | 1010.9 |
| 20260508161326 | 72 | 15 | 1.7 | 1.7 | 0.00 | 0.55 | 0.55 | 71 | 1010.9 |
| 20260508160823 | 72 | 173 | 0.0 | 0.0 | 0.00 | 0.55 | 0.55 | 73 | 1011.1 |
| 20260508160322 | 71 | 235 | 0.0 | 0.9 | 0.00 | 0.55 | 0.55 | 74 | 1011.1 |
| 20260508155818 | 70 | 171 | 0.9 | 0.9 | 0.00 | 0.55 | 0.55 | 74 | 1011.3 |
| 20260508155315 | 69 | 202 | 0.0 | 0.0 | 0.00 | 0.55 | 0.55 | 75 | 1011.2 |
| 20260508154812 | 69 | 249 | 0.9 | 0.9 | 0.00 | 0.55 | 0.55 | 75 | 1011.1 |
| 20260508154310 | 69 | 268 | 0.9 | 0.9 | 0.00 | 0.55 | 0.55 | 76 | 1011.5 |
| 20260508153806 | 69 | 239 | 0.0 | 0.0 | 0.00 | 0.55 | 0.55 | 76 | 1011.2 |
| 20260508153304 | 69 | 165 | 0.9 | 1.7 | 0.00 | 0.55 | 0.55 | 77 | 1011.4 |
| 20260508152759 | 68 | 147 | 0.9 | 0.9 | 0.00 | 0.55 | 0.55 | 78 | 1011.3 |
| 20260508152256 | 68 | 266 | 0.9 | 0.9 | 0.00 | 0.55 | 0.55 | 80 | 1011.5 |
| 20260508151752 | 67 | 321 | 0.9 | 0.9 | 0.00 | 0.55 | 0.55 | 79 | 1011.3 |
| 20260508151249 | 67 | 239 | 0.0 | 0.0 | 0.00 | 0.55 | 0.55 | 82 | 1011.4 |
| 20260508150745 | 66 | 245 | 0.9 | 0.9 | 0.00 | 0.55 | 0.55 | 83 | 1011.7 |
| 20260508150242 | 65 | 201 | 0.0 | 0.0 | 0.00 | 0.55 | 0.55 | 87 | 1011.5 |
| 20260508145738 | 64 | 354 | 0.0 | 0.9 | 0.00 | 0.55 | 0.55 | 90 | 1011.5 |
| 20260508145235 | 63 | 219 | 0.0 | 0.0 | 0.00 | 0.55 | 0.55 | 93 | 1011.5 |
| 20260508144731 | 63 | 194 | 0.0 | 0.9 | 0.00 | 0.55 | 0.55 | 95 | 1011.5 |
| 20260508144230 | 63 | 213 | 0.0 | 0.9 | 0.00 | 0.55 | 0.55 | 96 | 1011.7 |
| 20260508143727 | 63 | 198 | 0.0 | 0.0 | 0.00 | 0.55 | 0.55 | 96 | 1011.6 |
| 20260508143224 | 63 | 106 | 0.0 | 0.9 | 0.00 | 0.55 | 0.55 | 97 | 1012.1 |
| 20260508142720 | 62 | 250 | 0.9 | 0.9 | 0.00 | 0.55 | 0.55 | 97 | 1011.8 |
| 20260508142217 | 62 | 181 | 0.0 | 0.0 | 0.00 | 0.55 | 0.55 | 97 | 1011.8 |
| 20260508141714 | 62 | 242 | 0.0 | 0.0 | 0.00 | 0.55 | 0.55 | 98 | 1012.0 |
| 20260508141211 | 62 | 150 | 0.0 | 0.9 | 0.00 | 0.55 | 0.55 | 98 | 1012.1 |
| 20260508140708 | 62 | 215 | 0.0 | 0.0 | 0.00 | 0.55 | 0.55 | 98 | 1012.1 |
| 20260508140205 | 62 | 269 | 0.0 | 0.0 | 0.00 | 0.55 | 0.55 | 98 | 1011.7 |
| 20260508135701 | 62 | 235 | 0.0 | 0.0 | 0.00 | 0.55 | 0.55 | 98 | 1011.9 |